CDT,Max TemperatureF,Mean TemperatureF,Min TemperatureF,Max Dew PointF,MeanDew PointF,Min DewpointF,Max Humidity, Mean Humidity, Min Humidity, Max Sea Level PressureIn, Mean Sea Level PressureIn, Min Sea Level PressureIn, Max VisibilityMiles, Mean VisibilityMiles, Min VisibilityMiles, Max Wind SpeedMPH, Mean Wind SpeedMPH, Max Gust SpeedMPH,PrecipitationIn, CloudCover, Events, WindDirDegrees
2011-9-1,96,84,72,72,70,67,100,70,39,29.89,29.84,29.80,10,9,6,21,11,26,0.00,0,,182
2011-9-2,93,82,71,71,70,68,93,71,49,29.91,29.86,29.82,10,9,7,15,7,20,T,0,,195
2011-9-3,86,75,64,75,70,59,100,83,65,29.98,29.89,29.85,10,8,0,31,8,39,0.56,3,Fog-Rain-Thunderstorm,34
2011-9-4,74,62,50,59,51,47,93,67,41,30.14,30.07,29.99,10,10,9,25,13,32,0.00,1,,333
2011-9-5,70,58,45,51,46,42,100,69,37,30.21,30.16,30.12,10,10,10,16,7,23,0.00,0,,24
2011-9-6,71,57,43,49,46,44,100,70,40,30.24,30.19,30.15,10,10,10,13,5,18,0.00,0,,48
2011-9-7,74,59,43,51,47,43,93,64,35,30.28,30.23,30.20,10,10,10,15,7,24,0.00,0,,8
2011-9-8,79,64,49,57,53,48,93,68,43,30.23,30.16,30.06,10,10,10,20,10,25,0.00,0,,355
2011-9-9,79,66,52,59,54,50,100,69,37,30.04,29.98,29.92,10,10,9,16,6,20,0.00,2,,12
2011-9-10,80,67,54,62,57,55,100,73,45,30.04,30.01,29.97,10,10,10,15,6,21,0.00,3,,28
2011-9-11,85,70,55,60,57,53,100,67,34,30.07,30.03,29.99,10,10,7,13,4,17,0.00,0,,255
2011-9-12,88,74,59,62,58,56,97,66,34,30.02,29.94,29.83,10,10,10,22,11,29,0.00,0,,215
2011-9-13,76,65,54,60,51,45,93,64,35,30.05,29.97,29.86,10,10,10,15,9,20,0.00,0,,339
2011-9-14,65,52,38,50,40,25,93,60,27,30.32,30.16,30.01,10,10,10,22,10,28,0.01,,Rain,356
2011-9-15,61,49,36,36,31,25,82,54,25,30.44,30.37,30.31,10,10,10,13,7,18,0.00,,,48
2011-9-16,56,52,47,48,44,35,93,75,56,30.34,30.28,30.24,10,10,9,13,7,16,0.12,8,Rain,101
2011-9-17,63,57,50,51,47,44,83,68,52,30.24,30.17,30.09,10,10,10,15,9,21,T,8,,121
2011-9-18,64,60,56,63,59,51,100,86,72,30.08,29.98,29.94,10,6,2,14,6,18,0.32,8,Rain,169
2011-9-19,78,65,52,61,56,46,100,68,36,30.06,30.00,29.95,10,9,7,16,7,21,T,5,Rain,305
2011-9-20,82,67,52,56,52,48,93,64,34,30.00,29.94,29.86,10,10,10,22,10,28,0.00,1,,208
2011-9-21,71,60,48,48,46,44,86,64,41,30.11,30.02,29.96,10,10,10,22,11,29,0.00,2,,277
2011-9-22,64,52,40,47,42,37,100,71,42,30.19,30.14,30.09,10,9,5,20,8,28,0.00,2,,305
2011-9-23,66,51,35,47,39,36,100,72,43,30.17,30.13,30.04,10,4,0,13,4,36,0.00,2,Fog,349
2011-9-24,66,52,37,47,42,37,100,72,44,30.06,30.01,29.95,10,7,0,15,4,17,0.00,2,Fog,45
2011-9-25,65,50,35,50,44,36,100,76,52,29.98,29.91,29.83,10,8,2,18,8,24,0.11,4,Rain,346
2011-9-26,59,53,47,57,52,46,100,90,80,29.82,29.74,29.67,9,4,2,21,12,26,0.36,7,Rain,302
2011-9-27,68,59,50,55,51,45,100,73,45,29.89,29.84,29.76,10,8,4,17,10,22,0.00,2,,320
2011-9-28,75,65,54,58,56,54,100,79,57,29.89,29.85,29.82,10,9,4,9,4,13,0.00,5,,328
2011-9-29,75,65,55,56,46,35,100,63,25,30.04,29.89,29.79,10,10,7,41,17,54,T,1,,288
2011-9-30,70,55,39,46,41,34,86,58,29,30.21,30.14,30.06,10,10,10,23,12,26,0.00,0,,330